FW2335 Weather Reports


time (UTC)temp
C
wind
direction
speed
KPH
gust
KPH
rain 1hr
cm
rain 24hr
cm
rain mn
cm
humidity
%
barometer
mb
20210723165021 28 225 12.9 22.5 0.00 0.00 0.00 72 1020.5
20210723164521 28 203 11.3 19.3 0.00 0.00 0.00 74 1020.5
20210723164021 28 225 12.9 20.9 0.00 0.00 0.00 73 1020.5
20210723163521 28 225 8.0 16.1 0.00 0.00 0.00 74 1020.6
20210723163021 28 203 9.7 19.3 0.00 0.00 0.00 75 1020.7
20210723162521 28 225 9.7 14.5 0.00 0.00 0.00 74 1020.7
20210723162020 27 225 11.3 16.1 0.00 0.00 0.00 74 1020.7
20210723161521 27 225 11.3 19.3 0.00 0.00 0.00 74 1020.7
20210723161020 27 225 4.8 11.3 0.00 0.00 0.00 76 1020.8
20210723160521 27 225 9.7 20.9 0.00 0.00 0.00 76 1020.8
20210723160020 27 225 11.3 20.9 0.00 0.00 0.00 75 1020.7
20210723155531 27 225 14.5 22.5 0.00 0.00 0.00 76 1020.8
20210723155021 27 225 11.3 20.9 0.00 0.00 0.00 77 1020.7
20210723154522 27 203 11.3 22.5 0.00 0.00 0.00 77 1020.7
20210723154021 27 225 11.3 22.5 0.00 0.00 0.00 78 1020.8
20210723153521 26 225 14.5 24.1 0.00 0.00 0.00 77 1020.7
20210723153021 26 225 16.1 24.1 0.00 0.00 0.00 77 1020.7
20210723152521 27 225 11.3 19.3 0.00 0.00 0.00 78 1020.8
20210723152021 26 203 11.3 24.1 0.00 0.00 0.00 78 1020.8
20210723151521 26 225 12.9 22.5 0.00 0.00 0.00 78 1020.8
20210723151021 26 203 12.9 24.1 0.00 0.00 0.00 78 1020.8
20210723150522 26 225 14.5 22.5 0.00 0.00 0.00 78 1020.8
20210723150021 26 203 12.9 24.1 0.00 0.00 0.00 79 1020.9
20210723145601 26 225 12.9 20.9 0.00 0.00 0.00 78 1020.9
20210723145021 26 203 12.9 20.9 0.00 0.00 0.00 79 1020.9
20210723144525 26 225 12.9 22.5 0.00 0.00 0.00 79 1020.9
20210723144026 26 225 14.5 22.5 0.00 0.00 0.00 80 1021.0
20210723143525 25 225 16.1 24.1 0.00 0.00 0.00 80 1020.9
20210723143021 25 225 12.9 22.5 0.00 0.00 0.00 80 1020.9
20210723142522 25 225 17.7 29.0 0.00 0.00 0.00 81 1020.8
20210723142021 25 225 20.9 32.2 0.00 0.00 0.00 81 1020.9
20210723141523 25 225 20.9 29.0 0.00 0.00 0.00 81 1020.8
20210723141021 25 225 17.7 25.7 0.00 0.00 0.00 81 1020.9
20210723140520 25 225 19.3 30.6 0.00 0.00 0.00 80 1020.9
20210723140021 25 225 22.5 40.2 0.00 0.00 0.00 80 1020.8
20210723135603 25 225 17.7 29.0 0.00 0.00 0.00 80 1020.7
20210723135020 25 203 16.1 25.7 0.00 0.00 0.00 80 1020.6
20210723134521 25 225 14.5 29.0 0.00 0.00 0.00 80 1020.6
20210723134021 25 225 16.1 29.0 0.00 0.00 0.00 80 1020.5
20210723133521 25 225 16.1 29.0 0.00 0.00 0.00 80 1020.4
20210723133021 25 225 17.7 32.2 0.00 0.00 0.00 81 1020.4
20210723132520 25 225 12.9 19.3 0.00 0.00 0.00 81 1020.3
20210723132021 25 203 11.3 25.7 0.00 0.00 0.00 81 1020.3
20210723131523 25 203 6.4 14.5 0.00 0.00 0.00 82 1020.3
20210723131021 25 203 6.4 17.7 0.00 0.00 0.00 82 1020.2
20210723130521 24 203 9.7 19.3 0.00 0.00 0.00 82 1020.2
20210723130024 24 203 9.7 17.7 0.00 0.00 0.00 82 1020.2
20210723125528 24 203 8.0 14.5 0.00 0.00 0.00 83 1020.0
20210723125024 23 203 9.7 20.9 0.00 0.00 0.00 83 1020.1
20210723124521 23 225 6.4 12.9 0.00 0.00 0.00 83 1020.0
20210723124021 23 180 6.4 16.1 0.00 0.00 0.00 83 1019.9
20210723123520 23 180 6.4 12.9 0.00 0.00 0.00 83 1019.9
20210723123023 23 180 6.4 11.3 0.00 0.00 0.00 83 1019.9
20210723122520 23 203 6.4 11.3 0.00 0.00 0.00 83 1020.0
20210723122020 23 180 6.4 9.7 0.00 0.00 0.00 84 1020.0
20210723121523 23 203 4.8 9.7 0.00 0.00 0.00 84 1020.0
20210723121020 23 203 6.4 12.9 0.00 0.00 0.00 84 1019.9
20210723120520 23 203 6.4 11.3 0.00 0.00 0.00 84 1020.0
20210723120021 23 203 6.4 11.3 0.00 0.00 0.00 84 1019.9
20210723115611 23 203 4.8 14.5 0.00 0.00 0.00 84 1020.0
20210723115020 23 203 6.4 11.3 0.00 0.00 0.00 84 1020.0
20210723114520 23 203 4.8 12.9 0.00 0.00 0.00 84 1020.0
20210723114021 23 203 3.2 11.3 0.00 0.00 0.00 84 1020.0
20210723113521 23 203 4.8 8.0 0.00 0.00 0.00 84 1019.8
20210723113021 23 203 4.8 8.0 0.00 0.00 0.00 84 1019.8
20210723112520 23 203 4.8 9.7 0.00 0.00 0.00 84 1019.8
20210723112020 23 203 4.8 9.7 0.00 0.00 0.00 84 1019.7
20210723111520 23 203 6.4 11.3 0.00 0.00 0.00 84 1019.7
20210723111020 23 225 8.0 12.9 0.00 0.00 0.00 84 1019.7
20210723110520 23 225 6.4 11.3 0.00 0.00 0.00 83 1019.7
20210723110020 23 203 8.0 16.1 0.00 0.00 0.00 83 1019.8
20210723105522 23 203 4.8 11.3 0.00 0.00 0.00 83 1019.8
20210723105021 23 203 8.0 16.1 0.00 0.00 0.00 83 1019.8
20210723104522 23 203 8.0 16.1 0.00 0.00 0.00 84 1019.7
20210723104020 23 203 6.4 12.9 0.00 0.00 0.00 84 1019.7
20210723103521 23 203 6.4 14.5 0.00 0.00 0.00 83 1019.7
20210723103020 23 180 4.8 14.5 0.00 0.00 0.00 84 1019.6
20210723102520 23 203 6.4 11.3 0.00 0.00 0.00 84 1019.7
20210723102021 23 203 6.4 12.9 0.00 0.00 0.00 84 1019.7
20210723101522 23 203 8.0 16.1 0.00 0.00 0.00 84 1019.7
20210723101021 23 203 6.4 16.1 0.00 0.00 0.00 84 1019.7
20210723100520 23 203 8.0 16.1 0.00 0.00 0.00 84 1019.8
20210723100022 23 180 4.8 11.3 0.00 0.00 0.00 84 1019.7
20210723095610 23 180 4.8 9.7 0.00 0.00 0.00 84 1019.7
20210723095020 23 203 4.8 8.0 0.00 0.00 0.00 84 1019.8
20210723094526 23 180 4.8 8.0 0.00 0.00 0.00 84 1019.8
20210723094025 23 203 3.2 6.4 0.00 0.00 0.00 84 1019.7
20210723093520 23 180 4.8 8.0 0.00 0.00 0.00 83 1019.7
20210723093025 23 180 3.2 8.0 0.00 0.00 0.00 83 1019.6
20210723092521 23 203 4.8 9.7 0.00 0.00 0.00 83 1019.6
20210723092020 24 180 3.2 8.0 0.00 0.00 0.00 83 1019.6
20210723091520 24 180 3.2 6.4 0.00 0.00 0.00 83 1019.6
20210723091020 24 180 3.2 8.0 0.00 0.00 0.00 83 1019.6
20210723090525 24 180 4.8 9.7 0.00 0.00 0.00 83 1019.7
20210723090021 24 203 4.8 14.5 0.00 0.00 0.00 83 1019.7
20210723085520 24 180 6.4 14.5 0.00 0.00 0.00 83 1019.7
20210723085020 24 180 4.8 11.3 0.00 0.00 0.00 83 1019.6
20210723084521 24 180 4.8 14.5 0.00 0.00 0.00 83 1019.6
20210723084021 24 180 4.8 11.3 0.00 0.00 0.00 83 1019.5
20210723083520 24 180 4.8 11.3 0.00 0.00 0.00 84 1019.5
20210723083020 24 203 4.8 11.3 0.00 0.00 0.00 84 1019.5
20210723082520 24 180 4.8 11.3 0.00 0.00 0.00 84 1019.4
20210723082020 24 180 4.8 9.7 0.00 0.00 0.00 83 1019.4
20210723081523 24 180 4.8 11.3 0.00 0.00 0.00 83 1019.5
20210723081020 24 180 6.4 11.3 0.00 0.00 0.00 83 1019.5
20210723080520 24 180 4.8 12.9 0.00 0.00 0.00 83 1019.5
20210723080023 24 180 4.8 12.9 0.00 0.00 0.00 83 1019.6
20210723075520 24 180 4.8 9.7 0.00 0.00 0.00 84 1019.5
20210723075020 24 180 4.8 8.0 0.00 0.00 0.00 84 1019.5
20210723074522 23 180 4.8 9.7 0.00 0.00 0.00 84 1019.5
20210723074022 23 180 3.2 8.0 0.00 0.00 0.00 84 1019.5
20210723073520 23 180 1.6 3.2 0.00 0.00 0.00 84 1019.5
20210723073020 23 0.0 3.2 0.00 0.00 0.00 84 1019.5
20210723072520 23 180 1.6 3.2 0.00 0.00 0.00 84 1019.5
20210723072020 23 158 1.6 4.8 0.00 0.00 0.00 84 1019.5
20210723071520 23 180 1.6 4.8 0.00 0.00 0.00 84 1019.4
20210723071021 23 180 1.6 6.4 0.00 0.00 0.00 84 1019.4
20210723070520 24 180 1.6 4.8 0.00 0.00 0.00 84 1019.5
20210723070023 24 180 1.6 3.2 0.00 0.00 0.00 84 1019.5
20210723065524 24 180 1.6 3.2 0.00 0.00 0.00 83 1019.5
20210723065020 24 180 1.6 4.8 0.00 0.00 0.00 83 1019.6
20210723064521 24 180 3.2 4.8 0.00 0.00 0.00 83 1019.6
20210723064020 24 180 3.2 4.8 0.00 0.00 0.00 83 1019.5
20210723063519 24 180 1.6 4.8 0.00 0.00 0.00 84 1019.5
20210723063022 24 180 1.6 3.2 0.00 0.00 0.00 84 1019.4
20210723062520 24 180 1.6 4.8 0.00 0.00 0.00 83 1019.5
20210723062021 24 203 3.2 4.8 0.00 0.00 0.00 83 1019.4
20210723061520 24 180 1.6 6.4 0.00 0.00 0.00 83 1019.4
20210723061022 24 203 4.8 6.4 0.00 0.00 0.00 83 1019.4
20210723060520 24 203 4.8 6.4 0.00 0.00 0.00 83 1019.4
20210723060022 24 158 1.6 4.8 0.00 0.00 0.00 83 1019.4
20210723055520 24 0.0 1.6 0.00 0.00 0.00 83 1019.5
20210723055020 25 158 1.6 4.8 0.00 0.00 0.00 83 1019.4
20210723054520 25 158 1.6 4.8 0.00 0.00 0.00 83 1019.5
20210723054021 25 158 1.6 6.4 0.00 0.00 0.00 82 1019.5
20210723053520 25 158 1.6 4.8 0.00 0.00 0.00 82 1019.5
20210723053020 25 135 1.6 3.2 0.00 0.00 0.00 82 1019.5
20210723052523 25 135 1.6 4.8 0.00 0.00 0.00 82 1019.5
20210723052022 25 158 1.6 4.8 0.00 0.00 0.00 82 1019.5
20210723051520 25 158 1.6 3.2 0.00 0.00 0.00 82 1019.5
20210723051022 25 135 1.6 4.8 0.00 0.00 0.00 82 1019.5
20210723050520 25 135 1.6 4.8 0.00 0.00 0.00 82 1019.5
20210723050021 25 113 1.6 4.8 0.00 0.00 0.00 81 1019.5
20210723045522 25 135 1.6 4.8 0.00 0.00 0.00 81 1019.5
20210723045022 25 135 1.6 3.2 0.00 0.00 0.00 81 1019.6
20210723044524 25 113 3.2 6.4 0.00 0.00 0.00 81 1019.6
20210723044023 25 113 3.2 6.4 0.00 0.00 0.00 81 1019.5
20210723043525 25 135 3.2 4.8 0.00 0.00 0.00 81 1019.5
20210723043022 25 158 3.2 6.4 0.00 0.00 0.00 80 1019.5
20210723042522 25 135 1.6 3.2 0.00 0.00 0.00 80 1019.6
20210723042023 25 135 1.6 4.8 0.00 0.00 0.00 81 1019.5
20210723041524 26 135 1.6 4.8 0.00 0.00 0.00 80 1019.5
20210723041022 26 135 1.6 6.4 0.00 0.00 0.00 80 1019.5
20210723040522 26 135 1.6 6.4 0.00 0.00 0.00 80 1019.5
20210723040022 26 135 3.2 4.8 0.00 0.00 0.00 79 1019.4
20210723035522 26 113 3.2 4.8 0.00 0.00 0.00 79 1019.4
20210723035023 26 113 3.2 6.4 0.00 0.00 0.00 79 1019.3
20210723034628 26 135 3.2 6.4 0.00 0.00 0.00 79 1019.3
20210723034028 26 135 3.2 8.0 0.00 0.00 0.00 79 1019.2
20210723033524 26 135 3.2 6.4 0.00 0.00 0.00 79 1019.2
20210723033024 26 135 3.2 9.7 0.00 0.00 0.00 79 1019.2
20210723032524 26 135 3.2 4.8 0.00 0.00 0.00 80 1019.1
20210723032022 26 135 3.2 8.0 0.00 0.00 0.00 79 1019.2
20210723031522 26 135 3.2 6.4 0.00 0.00 0.00 80 1019.1
20210723031022 26 135 3.2 6.4 0.00 0.00 0.00 79 1019.1
20210723030521 26 135 4.8 9.7 0.00 0.00 0.00 79 1019.1
20210723030024 26 135 4.8 9.7 0.00 0.00 0.00 79 1019.0
20210723025521 26 135 4.8 6.4 0.00 0.00 0.00 79 1019.0
20210723025021 26 135 3.2 6.4 0.00 0.00 0.00 79 1019.0
20210723024521 26 135 4.8 6.4 0.00 0.00 0.00 79 1019.0
20210723024021 27 135 3.2 6.4 0.00 0.00 0.00 78 1018.9
20210723023522 27 113 3.2 6.4 0.00 0.00 0.00 78 1018.9
20210723023021 27 113 4.8 6.4 0.00 0.00 0.00 78 1018.8
20210723022522 27 113 3.2 6.4 0.00 0.00 0.00 77 1018.8
20210723022022 27 113 3.2 6.4 0.00 0.00 0.00 77 1018.7
20210723021523 27 135 3.2 6.4 0.00 0.00 0.00 76 1018.7
20210723021022 27 113 3.2 6.4 0.00 0.00 0.00 76 1018.7
20210723020522 27 113 4.8 6.4 0.00 0.00 0.00 75 1018.7
20210723020023 27 113 4.8 11.3 0.00 0.00 0.00 75 1018.6
20210723015609 28 113 4.8 11.3 0.00 0.00 0.00 74 1018.7
20210723015021 28 113 4.8 11.3 0.00 0.00 0.00 73 1018.6
20210723014522 28 113 4.8 11.3 0.00 0.00 0.00 73 1018.6
20210723014021 28 113 6.4 11.3 0.00 0.00 0.00 73 1018.6
20210723013521 28 113 6.4 11.3 0.00 0.00 0.00 72 1018.6
20210723013021 28 113 6.4 11.3 0.00 0.00 0.00 71 1018.5
20210723012521 28 113 6.4 11.3 0.00 0.00 0.00 71 1018.5
20210723012021 28 113 6.4 11.3 0.00 0.00 0.00 70 1018.4
20210723011521 29 113 4.8 12.9 0.00 0.00 0.00 70 1018.5
20210723011021 29 113 4.8 9.7 0.00 0.00 0.00 69 1018.4
20210723010521 30 113 4.8 9.7 0.00 0.00 0.00 68 1018.4
20210723010021 30 113 4.8 9.7 0.00 0.00 0.00 66 1018.3
20210723005600 30 113 3.2 6.4 0.00 0.00 0.00 66 1018.2
20210723005022 30 113 4.8 9.7 0.00 0.00 0.00 64 1018.0
20210723004523 30 113 4.8 11.3 0.00 0.00 0.00 65 1018.0
20210723004021 30 113 4.8 9.7 0.00 0.00 0.00 64 1018.0
20210723003521 30 113 4.8 11.3 0.00 0.00 0.00 63 1018.0
20210723003021 30 113 4.8 12.9 0.00 0.00 0.00 63 1017.9
20210723002521 30 113 6.4 11.3 0.00 0.00 0.00 62 1017.9
20210723002021 31 113 4.8 11.3 0.00 0.00 0.00 62 1018.0
20210723001522 31 113 3.2 9.7 0.00 0.00 0.00 63 1017.9
20210723001022 31 113 3.2 6.4 0.00 0.00 0.00 64 1017.9
20210723000521 30 113 4.8 9.7 0.00 0.00 0.00 61 1017.9
20210723000022 31 113 6.4 12.9 0.00 0.00 0.00 60 1017.9
20210722235607 31 113 6.4 12.9 0.00 0.00 0.00 59 1017.9
20210722235022 31 113 8.0 16.1 0.00 0.00 0.00 56 1017.9
20210722234522 31 113 6.4 14.5 0.00 0.00 0.00 58 1017.9
20210722234022 31 135 8.0 14.5 0.00 0.00 0.00 56 1018.0
20210722233522 32 135 6.4 12.9 0.00 0.00 0.00 55 1018.0
20210722233022 31 158 3.2 8.0 0.00 0.00 0.00 56 1018.0
20210722232522 31 113 6.4 14.5 0.00 0.00 0.00 57 1017.9
20210722232023 31 113 6.4 16.1 0.00 0.00 0.00 59 1018.0
20210722231523 31 113 4.8 9.7 0.00 0.00 0.00 58 1018.1
20210722231021 31 113 4.8 11.3 0.00 0.00 0.00 58 1018.1
20210722230529 31 113 4.8 12.9 0.00 0.00 0.00 57 1018.2
20210722230033 31 113 6.4 11.3 0.00 0.00 0.00 55 1018.2
20210722225525 32 135 6.4 16.1 0.00 0.00 0.00 55 1018.3
20210722225022 32 113 6.4 12.9 0.00 0.00 0.00 56 1018.3
20210722224521 32 113 3.2 11.3 0.00 0.00 0.00 56 1018.4
20210722224022 32 113 4.8 12.9 0.00 0.00 0.00 53 1018.4
20210722223521 32 135 4.8 11.3 0.00 0.00 0.00 50 1018.4
20210722223021 33 180 4.8 12.9 0.00 0.00 0.00 47 1018.4
20210722222521 33 158 4.8 16.1 0.00 0.00 0.00 49 1018.5
20210722222021 33 180 4.8 12.9 0.00 0.00 0.00 50 1018.5
20210722221523 33 180 6.4 14.5 0.00 0.00 0.00 48 1018.6
20210722221021 32 158 6.4 14.5 0.00 0.00 0.00 49 1018.5
20210722220521 33 225 8.0 14.5 0.00 0.00 0.00 46 1018.6
20210722220021 33 225 6.4 11.3 0.00 0.00 0.00 46 1018.7
20210722215521 33 113 3.2 9.7 0.00 0.00 0.00 52 1018.8
20210722215021 33 135 4.8 14.5 0.00 0.00 0.00 51 1018.9
20210722214526 33 203 3.2 9.7 0.00 0.00 0.00 50 1018.9
20210722214021 33 135 3.2 11.3 0.00 0.00 0.00 49 1018.9
20210722213521 33 135 6.4 20.9 0.00 0.00 0.00 48 1018.9
20210722213021 33 158 4.8 11.3 0.00 0.00 0.00 50 1019.0
20210722212523 33 180 4.8 12.9 0.00 0.00 0.00 49 1019.1
20210722212021 33 203 8.0 20.9 0.00 0.00 0.00 49 1019.1
20210722211522 32 135 4.8 14.5 0.00 0.00 0.00 49 1019.1
20210722211021 32 203 8.0 19.3 0.00 0.00 0.00 51 1019.1
20210722210521 32 203 9.7 19.3 0.00 0.00 0.00 47 1019.2
20210722210025 33 225 6.4 16.1 0.00 0.00 0.00 46 1019.3
20210722205521 33 113 4.8 14.5 0.00 0.00 0.00 48 1019.4
20210722205021 33 135 4.8 14.5 0.00 0.00 0.00 48 1019.5
20210722204521 33 113 4.8 11.3 0.00 0.00 0.00 46 1019.5
20210722204021 33 113 9.7 19.3 0.00 0.00 0.00 48 1019.5
20210722203521 33 113 8.0 20.9 0.00 0.00 0.00 47 1019.6
20210722203023 33 180 6.4 12.9 0.00 0.00 0.00 45 1019.7
20210722202521 33 158 4.8 14.5 0.00 0.00 0.00 49 1019.8
20210722202021 33 113 6.4 12.9 0.00 0.00 0.00 51 1019.8
20210722201522 32 225 8.0 17.7 0.00 0.00 0.00 48 1019.9
20210722201021 33 203 4.8 11.3 0.00 0.00 0.00 49 1019.9
20210722200520 33 225 4.8 11.3 0.00 0.00 0.00 46 1020.0
20210722200021 33 158 4.8 11.3 0.00 0.00 0.00 50 1020.1
20210722195601 33 135 4.8 14.5 0.00 0.00 0.00 50 1020.1
20210722195021 33 158 6.4 17.7 0.00 0.00 0.00 53 1020.2
20210722194527 33 113 8.0 14.5 0.00 0.00 0.00 51 1020.2
20210722194021 33 135 4.8 12.9 0.00 0.00 0.00 51 1020.2
20210722193521 32 113 4.8 12.9 0.00 0.00 0.00 51 1020.3
20210722193022 32 135 6.4 19.3 0.00 0.00 0.00 52 1020.3
20210722192521 32 113 4.8 12.9 0.00 0.00 0.00 54 1020.4
20210722192023 32 113 4.8 12.9 0.00 0.00 0.00 53 1020.4
20210722191521 32 113 6.4 12.9 0.00 0.00 0.00 55 1020.5
20210722191021 32 135 8.0 17.7 0.00 0.00 0.00 50 1020.5
20210722190521 32 135 6.4 12.9 0.00 0.00 0.00 53 1020.6
20210722190021 32 180 4.8 16.1 0.00 0.00 0.00 52 1020.6
20210722185521 32 135 6.4 16.1 0.00 0.00 0.00 54 1020.7
20210722185021 32 180 4.8 9.7 0.00 0.00 0.00 56 1020.7
20210722184524 32 135 6.4 14.5 0.00 0.00 0.00 56 1020.7
20210722184024 32 135 4.8 12.9 0.00 0.00 0.00 58 1020.8
20210722183524 31 135 6.4 12.9 0.00 0.00 0.00 59 1020.8
20210722183023 31 113 8.0 16.1 0.00 0.00 0.00 59 1020.8
20210722182523 31 113 4.8 9.7 0.00 0.00 0.00 57 1020.9
20210722182020 31 158 6.4 14.5 0.00 0.00 0.00 58 1020.9
20210722181520 31 158 6.4 19.3 0.00 0.00 0.00 60 1021.0
20210722181020 30 225 4.8 9.7 0.00 0.00 0.00 59 1021.0
20210722180521 30 225 6.4 11.3 0.00 0.00 0.00 59 1021.0
20210722180021 30 203 11.3 19.3 0.00 0.00 0.00 59 1021.1
20210722175555 30 203 3.2 9.7 0.00 0.00 0.00 63 1021.2
20210722175022 30 203 6.4 9.7 0.00 0.00 0.00 61 1021.2
20210722174522 30 203 6.4 12.9 0.00 0.00 0.00 60 1021.2
20210722174021 30 225 4.8 14.5 0.00 0.00 0.00 60 1021.2
20210722173521 30 203 1.6 4.8 0.00 0.00 0.00 59 1021.2
20210722173021 30 203 4.8 11.3 0.00 0.00 0.00 59 1021.3
20210722172523 30 203 6.4 12.9 0.00 0.00 0.00 60 1021.3
20210722172030 30 225 6.4 17.7 0.00 0.00 0.00 58 1021.3
20210722171523 30 203 4.8 17.7 0.00 0.00 0.00 59 1021.4
20210722171023 30 180 6.4 12.9 0.00 0.00 0.00 60 1021.4
20210722170525 30 158 4.8 11.3 0.00 0.00 0.00 63 1021.5
20210722170021 30 135 4.8 9.7 0.00 0.00 0.00 63 1021.5
20210722165521 29 203 4.8 9.7 0.00 0.00 0.00 61 1021.5